Main page
METAR-TAF:

METAR-TAF

Airports :

Crawfordsville Municipal Airport

Crawfordsville, Indiana, United States

latitude: 39-58-34N, longitude: 086-55-09W, elevation: 800 ft

Current weather observation

The report was made 34 minutes ago, at 11:15 UTC
Wind 9 mph from the South/Southwest
Temperature 34°F
Humidity 69%
Pressure 30.09 in. Hg
Visibility: 10 miles
Overcast at a height of 6500 ft

METAR: KCFJ 231115Z AUTO 20008KT 10SM OVC065 01/M04 A3009 RMK AO2 T00071045

Time: 06:49 (11:49 UTC)


TAF: missing

Weather observations and forecasts of more than 4000 airports (METAR and TAF reports).

The available stations are represented by yellow and red dots on the map.

Hover mouse over dot to see the name of the station.

Then click to see weather observations and forecasts.

To change the map : click on the green buttons with a black cross to zoom in, on the green button with a dash to zoom out, or on the green arrows for adjacent maps.


METAR-TAF: